Station: EHBK - 23/08/2019 16:25Z (il y a 20 minutes)
EHBK 231625Z AUTO 04008KT 9999 NSC 25/12 Q1023 NOSIG
Vent du 040º - 8 kt
Visibilité > 10 km
Pas de nuages significatifs
Température: +25ºC - Point de rosée: +12ºC - QNH: 1023 hPa
Pas de changement significatif prévu dans les 2 heures qui suivent l'observation